Time;durP1;ratioP1;P1;durP2;ratioP2;P2;SDS_P1;SDS_P2;PMS_P1;PMS_P2;Temp;Humidity;BMP_temperature;BMP_pressure;BME280_temperature;BME280_humidity;BME280_pressure;Samples;Min_cycle;Max_cycle;Signal;HPM_P1;HPM_P2
2022/05/16 00:00:59;;;;;;;1999.90;999.90;;;;;;;15.70;100.00;95245.75;5096785;28;20184;-60
2022/05/16 00:03:25;;;;;;;1999.90;999.90;;;;;;;15.67;100.00;95241.88;5096976;28;20180;-60
2022/05/16 00:05:51;;;;;;;1999.90;999.90;;;;;;;15.68;100.00;95248.16;5096822;28;20180;-59
2022/05/16 00:08:16;;;;;;;1999.90;999.90;;;;;;;15.67;100.00;95252.88;5096890;28;20229;-61
2022/05/16 00:10:43;;;;;;;1999.90;999.90;;;;;;;15.67;100.00;95258.38;5097278;28;20208;-58
2022/05/16 00:13:08;;;;;;;1999.90;999.90;;;;;;;15.71;100.00;95256.31;5096450;28;20188;-63
2022/05/16 00:15:34;;;;;;;1999.90;999.90;;;;;;;15.73;100.00;95264.91;5096280;28;20202;-65
2022/05/16 00:18:00;;;;;;;1999.90;999.90;;;;;;;15.72;100.00;95263.38;5096482;28;20212;-63
2022/05/16 00:20:26;;;;;;;1999.90;999.90;;;;;;;15.69;100.00;95258.72;5096270;28;20191;-64
2022/05/16 00:22:52;;;;;;;1999.90;999.90;;;;;;;15.70;100.00;95276.78;5096543;28;20184;-64
2022/05/16 00:25:18;;;;;;;1999.90;999.90;;;;;;;15.68;100.00;95273.72;5096749;28;20191;-64
2022/05/16 00:27:44;;;;;;;1999.90;999.90;;;;;;;15.68;100.00;95262.72;5096452;28;20216;-64
2022/05/16 00:30:13;;;;;;;1999.90;999.90;;;;;;;15.65;100.00;95262.81;5096456;28;20186;-60
2022/05/16 00:32:39;;;;;;;1999.90;999.90;;;;;;;15.68;100.00;95259.97;5096224;28;20206;-59
2022/05/16 00:35:07;;;;;;;1999.90;999.90;;;;;;;15.70;100.00;95260.28;5096448;28;20195;-59
2022/05/16 00:37:32;;;;;;;1999.90;999.90;;;;;;;15.58;100.00;95258.28;5096107;28;20180;-60
2022/05/16 00:39:58;;;;;;;1999.90;999.90;;;;;;;15.56;100.00;95266.19;5096347;28;20195;-59
2022/05/16 00:42:23;;;;;;;1999.90;999.90;;;;;;;15.57;100.00;95256.75;5096371;28;20191;-61
2022/05/16 00:44:49;;;;;;;1999.90;999.90;;;;;;;15.55;100.00;95256.41;5114087;28;20184;-60
2022/05/16 00:47:14;;;;;;;1999.90;999.90;;;;;;;15.49;100.00;95249.91;5095956;28;20242;-61
2022/05/16 00:49:43;;;;;;;1999.90;999.90;;;;;;;15.44;100.00;95258.69;5096518;28;20183;-58
2022/05/16 00:52:26;;;;;;;1999.90;999.90;;;;;;;15.44;100.00;95258.69;5097738;28;20183;-58
2022/05/16 00:54:55;;;;;;;1999.90;999.90;;;;;;;15.46;100.00;95253.53;5099873;28;20180;-58
2022/05/16 00:57:23;;;;;;;1999.90;999.90;;;;;;;15.41;100.00;95251.31;5099615;28;20182;-58
2022/05/16 01:00:07;;;;;;;1999.90;999.90;;;;;;;15.43;100.00;95246.16;5099538;28;20191;-58
2022/05/16 01:05:18;;;;;;;1999.90;999.90;;;;;;;15.47;100.00;95252.31;5118039;28;20232;-64
2022/05/16 01:07:44;;;;;;;1999.90;999.90;;;;;;;15.48;100.00;95253.84;5099504;28;20216;-57
2022/05/16 01:10:14;;;;;;;1999.90;999.90;;;;;;;15.48;100.00;95258.59;5099388;28;20189;-56
2022/05/16 01:12:42;;;;;;;1999.90;999.90;;;;;;;15.47;100.00;95257.81;5099382;28;20271;-57
2022/05/16 01:15:14;;;;;;;1999.90;999.90;;;;;;;15.44;100.00;95264.19;5099247;28;20270;-57
2022/05/16 01:17:40;;;;;;;1999.90;999.90;;;;;;;15.26;100.00;95261.16;5099023;28;20203;-57
2022/05/16 01:20:07;;;;;;;1999.90;999.90;;;;;;;15.30;100.00;95264.56;5099210;28;20184;-57
2022/05/16 01:22:43;;;;;;;1999.90;999.90;;;;;;;15.30;100.00;95264.56;5098801;28;20187;-59
2022/05/16 01:25:16;;;;;;;1999.90;999.90;;;;;;;15.27;100.00;95259.94;5099657;28;20260;-63
2022/05/16 01:27:47;;;;;;;1999.90;999.90;;;;;;;15.19;100.00;95255.84;5099043;28;20204;-67
2022/05/16 01:30:14;;;;;;;1999.90;999.90;;;;;;;15.14;100.00;95247.34;5099492;28;20184;-67
2022/05/16 01:32:39;;;;;;;1999.90;999.90;;;;;;;15.04;100.00;95251.94;5099477;28;20187;-65
2022/05/16 01:35:05;;;;;;;1999.90;999.90;;;;;;;14.96;100.00;95261.59;5099087;28;20252;-66
2022/05/16 01:38:18;;;;;;;1999.90;999.90;;;;;;;14.89;100.00;95256.28;5099488;28;20225;-64
2022/05/16 01:40:28;;;;;;;1999.90;999.90;;;;;;;14.93;100.00;95256.97;5116399;28;20262;-58
2022/05/16 01:42:53;;;;;;;1999.90;999.90;;;;;;;14.98;100.00;95255.69;5099001;28;20219;-64
2022/05/16 01:45:19;;;;;;;1999.90;999.90;;;;;;;15.01;100.00;95257.56;5098704;28;20194;-54
2022/05/16 01:47:44;;;;;;;1999.90;999.90;;;;;;;14.98;100.00;95256.47;5098606;28;20207;-57
2022/05/16 01:50:10;;;;;;;1999.90;999.90;;;;;;;14.92;100.00;95255.44;5099246;28;20273;-58
2022/05/16 01:52:35;;;;;;;1999.90;999.90;;;;;;;14.87;100.00;95269.72;5098762;28;20194;-54
2022/05/16 01:55:00;;;;;;;1999.90;999.90;;;;;;;14.90;100.00;95263.34;5098621;28;20199;-54
2022/05/16 01:57:26;;;;;;;1999.90;999.90;;;;;;;14.90;100.00;95274.34;5098729;28;20188;-54
2022/05/16 01:59:51;;;;;;;1999.90;999.90;;;;;;;14.89;100.00;95283.78;5098637;28;20180;-64
2022/05/16 02:02:16;;;;;;;1999.90;999.90;;;;;;;14.80;100.00;95283.66;5098614;28;20222;-59
2022/05/16 02:04:42;;;;;;;1999.90;999.90;;;;;;;14.73;100.00;95292.09;5097416;28;20180;-59
2022/05/16 02:07:07;;;;;;;1999.90;999.90;;;;;;;14.77;100.00;95287.25;5099130;28;20191;-59
2022/05/16 02:09:33;;;;;;;1999.90;999.90;;;;;;;14.66;100.00;95289.53;5098439;28;20187;-59
2022/05/16 02:11:58;;;;;;;1999.90;999.90;;;;;;;14.64;100.00;95294.66;5098646;28;20184;-59
2022/05/16 02:14:23;;;;;;;1999.90;999.90;;;;;;;14.60;100.00;95296.72;5098003;28;20199;-59
2022/05/16 02:16:49;;;;;;;1999.90;999.90;;;;;;;14.64;100.00;95300.16;5098172;28;20204;-59
2022/05/16 02:19:15;;;;;;;1999.90;999.90;;;;;;;14.64;100.00;95296.66;5098869;28;20211;-69
2022/05/16 02:24:39;;;;;;;1999.90;999.90;;;;;;;14.72;100.00;95285.03;5116259;28;20219;-59
2022/05/16 02:27:11;;;;;;;1999.90;999.90;;;;;;;14.74;100.00;95277.13;5098854;28;20180;-59
2022/05/16 02:29:37;;;;;;;1999.90;999.90;;;;;;;14.76;100.00;95269.22;5097847;28;20184;-59
2022/05/16 02:32:06;;;;;;;1999.90;999.90;;;;;;;14.77;100.00;95273.53;5098516;28;20180;-59
2022/05/16 02:34:32;;;;;;;1999.90;999.90;;;;;;;14.83;100.00;95277.25;5098153;28;20180;-60
2022/05/16 02:36:58;;;;;;;1999.90;999.90;;;;;;;14.85;100.00;95283.13;5116165;28;20180;-59
2022/05/16 02:39:23;;;;;;;1999.90;999.90;;;;;;;14.87;100.00;95290.94;5098180;28;20177;-57
2022/05/16 02:41:49;;;;;;;1999.90;999.90;;;;;;;14.88;100.00;95286.97;5098117;28;20187;-57
2022/05/16 02:44:15;;;;;;;1999.90;999.90;;;;;;;14.99;100.00;95282.75;5097970;28;20426;-56
2022/05/16 02:46:41;;;;;;;1999.90;999.90;;;;;;;15.05;100.00;95278.25;5097883;28;20192;-55
2022/05/16 02:49:07;;;;;;;1999.90;999.90;;;;;;;15.12;100.00;95291.81;5098082;28;20208;-58
2022/05/16 02:51:33;;;;;;;1999.90;999.90;;;;;;;15.11;100.00;95289.47;5097869;28;20325;-58
2022/05/16 02:53:59;;;;;;;1999.90;999.90;;;;;;;15.20;100.00;95287.69;5097461;28;20191;-57
2022/05/16 02:56:24;;;;;;;1999.90;999.90;;;;;;;15.18;100.00;95292.81;5097739;28;20183;-66
2022/05/16 02:58:50;;;;;;;1999.90;999.90;;;;;;;15.18;100.00;95295.56;5097582;28;20183;-62
2022/05/16 03:01:15;;;;;;;1999.90;999.90;;;;;;;15.18;100.00;95301.09;5097892;28;20274;-59
2022/05/16 03:03:42;;;;;;;1999.90;999.90;;;;;;;15.19;100.00;95308.13;5097369;28;20212;-61
2022/05/16 03:06:08;;;;;;;1999.90;999.90;;;;;;;15.18;100.00;95306.59;5097415;28;20259;-59
2022/05/16 03:08:35;;;;;;;1999.90;999.90;;;;;;;15.17;100.00;95294.03;5097708;28;20212;-62
2022/05/16 03:11:01;;;;;;;1999.90;999.90;;;;;;;15.24;100.00;95298.56;5097676;28;20188;-61
2022/05/16 03:13:27;;;;;;;1999.90;999.90;;;;;;;15.26;100.00;95298.91;5097343;28;20190;-58
2022/05/16 03:15:52;;;;;;;1999.90;999.90;;;;;;;15.33;100.00;95288.47;5097418;28;20183;-59
2022/05/16 03:18:18;;;;;;;1999.90;999.90;;;;;;;15.34;100.00;95281.75;5097055;28;20284;-61
2022/05/16 03:20:44;;;;;;;1999.90;999.90;;;;;;;15.44;100.00;95277.97;5097644;28;20240;-60
2022/05/16 03:23:09;;;;;;;1999.90;999.90;;;;;;;15.51;100.00;95290.75;5097318;28;20180;-60
2022/05/16 03:25:35;;;;;;;1999.90;999.90;;;;;;;15.45;100.00;95287.75;5097312;28;20219;-60
2022/05/16 03:28:00;;;;;;;1999.90;999.90;;;;;;;15.60;100.00;95285.38;5097451;28;20238;-60
2022/05/16 03:30:27;;;;;;;1999.90;999.90;;;;;;;15.61;100.00;95279.44;5097128;28;20180;-61
2022/05/16 03:32:52;;;;;;;1999.90;999.90;;;;;;;15.67;100.00;95283.16;5097465;28;20195;-57
2022/05/16 03:35:18;;;;;;;1999.90;999.90;;;;;;;15.70;100.00;95276.78;5096870;28;20181;-67
2022/05/16 03:37:43;;;;;;;1999.90;999.90;;;;;;;15.76;100.00;95280.56;5097001;28;20184;-67
2022/05/16 03:42:54;;;;;;;1999.90;999.90;;;;;;;15.73;100.00;95289.69;5115503;28;20210;-67
2022/05/16 03:45:19;;;;;;;1999.90;999.90;;;;;;;15.78;100.00;95289.13;5097451;28;20184;-67
2022/05/16 03:47:45;;;;;;;1999.90;999.90;;;;;;;15.84;100.00;95279.13;5097144;28;20299;-65
2022/05/16 03:50:11;;;;;;;1999.90;999.90;;;;;;;15.89;100.00;95283.31;5096805;28;20180;-63
2022/05/16 03:52:38;;;;;;;1999.90;999.90;;;;;;;15.87;100.00;95280.22;5096749;28;20251;-60
2022/05/16 03:55:04;;;;;;;1999.90;999.90;;;;;;;15.87;100.00;95283.75;5096789;28;20223;-61
2022/05/16 03:57:30;;;;;;;1999.90;999.90;;;;;;;15.89;100.00;95286.06;5096589;28;20211;-60
2022/05/16 03:59:55;;;;;;;1999.90;999.90;;;;;;;15.93;100.00;95289.50;5096877;28;20183;-60
2022/05/16 04:02:20;;;;;;;1999.90;999.90;;;;;;;15.90;100.00;95290.38;5096255;28;20270;-61
2022/05/16 04:04:46;;;;;;;1999.90;999.90;;;;;;;16.11;100.00;95301.50;5096592;28;20184;-60
2022/05/16 04:07:11;;;;;;;1999.90;999.90;;;;;;;16.21;100.00;95294.88;5096662;28;20184;-60
2022/05/16 04:09:37;;;;;;;1999.90;999.90;;;;;;;16.27;100.00;95304.16;5096526;28;20267;-58
2022/05/16 04:12:02;;;;;;;1999.90;999.90;;;;;;;16.25;100.00;95301.06;5097054;28;20183;-64
2022/05/16 04:14:28;;;;;;;1999.90;999.90;;;;;;;16.34;100.00;95308.66;5096159;28;20263;-64
2022/05/16 04:16:53;;;;;;;1999.90;999.90;;;;;;;16.33;100.00;95304.38;5096925;28;20199;-64
2022/05/16 04:19:18;;;;;;;1999.90;999.90;;;;;;;16.39;100.00;95310.84;5096359;28;20215;-64
2022/05/16 04:21:44;;;;;;;1999.90;999.90;;;;;;;16.41;100.00;95308.44;5096817;28;20198;-63
2022/05/16 04:24:09;;;;;;;1999.90;999.90;;;;;;;16.47;100.00;95303.16;5096672;28;20191;-63
2022/05/16 04:26:35;;;;;;;1999.90;999.90;;;;;;;16.48;100.00;95311.00;5095371;28;20375;-61
2022/05/16 04:29:00;;;;;;;1999.90;999.90;;;;;;;16.51;100.00;95303.81;5096248;28;20207;-58
2022/05/16 04:31:26;;;;;;;1999.90;999.90;;;;;;;16.42;100.00;95302.50;5114347;28;20195;-66
2022/05/16 04:33:51;;;;;;;1999.90;999.90;;;;;;;16.47;100.00;95294.91;5096055;28;20172;-66
2022/05/16 04:36:17;;;;;;;1999.90;999.90;;;;;;;16.44;100.00;95297.31;5095985;28;20290;-65
2022/05/16 04:38:42;;;;;;;1999.90;999.90;;;;;;;16.51;100.00;95295.56;5096123;28;20244;-66
2022/05/16 04:43:52;;;;;;;1999.90;999.90;;;;;;;16.63;100.00;95297.50;5114291;28;20191;-64
2022/05/16 04:46:17;;;;;;;1999.90;999.90;;;;;;;16.65;100.00;95300.59;5095908;28;20184;-60
2022/05/16 04:48:43;;;;;;;1999.90;999.90;;;;;;;16.71;100.00;95298.84;5095754;28;20203;-66
2022/05/16 04:51:09;;;;;;;1999.90;999.90;;;;;;;16.81;100.00;95295.72;5095883;28;20187;-65
2022/05/16 04:53:35;;;;;;;1999.90;999.90;;;;;;;16.83;100.00;95290.53;5095832;28;20198;-67
2022/05/16 04:56:00;;;;;;;1999.90;999.90;;;;;;;16.90;100.00;95284.00;5096065;28;20191;-66
2022/05/16 04:58:26;;;;;;;1999.90;999.90;;;;;;;17.04;100.00;95300.06;5095788;28;20191;-65
2022/05/16 05:00:51;;;;;;;1999.90;999.90;;;;;;;17.12;100.00;95301.38;5095997;28;20288;-66
2022/05/16 05:03:17;;;;;;;1999.90;999.90;;;;;;;17.23;100.00;95307.28;5095645;28;20186;-66
2022/05/16 05:05:42;;;;;;;1999.90;999.90;;;;;;;17.32;100.00;95310.09;5096197;28;20188;-71
2022/05/16 05:08:09;;;;;;;1999.90;999.90;;;;;;;17.38;100.00;95311.06;5095825;28;20212;-62
2022/05/16 05:16:07;;;;;;;1999.90;999.90;;;;;;;17.43;100.00;95310.53;5113818;28;20186;-61
2022/05/16 05:18:33;;;;;;;1999.90;999.90;;;;;;;17.56;100.00;95314.00;5095363;28;20195;-62
2022/05/16 05:20:59;;;;;;;1999.90;999.90;;;;;;;17.71;100.00;95317.78;5095351;28;20184;-59
2022/05/16 05:23:25;;;;;;;1999.90;999.90;;;;;;;17.80;100.00;95320.59;5095970;28;20183;-65
2022/05/16 05:25:51;;;;;;;1999.90;999.90;;;;;;;17.81;100.00;95319.38;5095432;28;20187;-61
2022/05/16 05:28:16;;;;;;;1999.90;999.90;;;;;;;17.91;100.00;95320.97;5095476;28;20214;-70
2022/05/16 05:30:41;;;;;;;1999.90;999.90;;;;;;;17.99;100.00;95325.78;5095506;28;20188;-67
2022/05/16 05:33:10;;;;;;;1999.90;999.90;;;;;;;18.08;100.00;95334.13;5095622;28;20190;-68
2022/05/16 05:35:35;;;;;;;1999.90;999.90;;;;;;;18.16;100.00;95329.09;5095510;28;20194;-71
2022/05/16 05:38:01;;;;;;;1999.90;999.90;;;;;;;18.32;100.00;95331.63;5096600;28;20184;-61
2022/05/16 05:40:26;;;;;;;1999.90;999.90;;;;;;;18.40;100.00;95338.44;5098736;28;20190;-54
2022/05/16 05:42:52;;;;;;;1999.90;999.90;;;;;;;18.50;100.00;95331.75;5098694;28;20191;-65
2022/05/16 05:45:17;;;;;;;1999.90;999.90;;;;;;;18.87;100.00;95333.38;5098754;28;20187;-66
2022/05/16 05:47:43;;;;;;;1999.90;999.90;;;;;;;19.28;100.00;95332.84;5098872;28;20235;-65
2022/05/16 05:50:09;;;;;;;1999.90;999.90;;;;;;;19.34;100.00;95350.41;5098585;28;20217;-66
2022/05/16 05:52:34;;;;;;;1999.90;999.90;;;;;;;19.92;100.00;95350.97;5098490;28;20180;-69
2022/05/16 05:54:59;;;;;;;1999.90;999.90;;;;;;;20.44;100.00;95364.44;5098584;28;20183;-66
2022/05/16 05:57:25;;;;;;;1999.90;999.90;;;;;;;20.62;100.00;95375.50;5098988;28;20390;-65
2022/05/16 05:59:52;;;;;;;1999.90;999.90;;;;;;;20.74;100.00;95380.06;5116308;28;20183;-61
2022/05/16 06:02:17;;;;;;;1999.90;999.90;;;;;;;21.76;100.00;95378.56;5116283;28;20180;-64
2022/05/16 06:04:43;;;;;;;1999.90;999.90;;;;;;;22.71;100.00;95395.72;5099009;28;20525;-64
2022/05/16 06:07:08;;;;;;;1999.90;999.90;;;;;;;23.35;96.31;95398.47;5098522;28;20205;-64
2022/05/16 06:09:33;;;;;;;1999.90;999.90;;;;;;;23.61;92.03;95399.31;5098262;28;20211;-65
2022/05/16 06:11:59;;;;;;;1999.90;999.90;;;;;;;24.07;90.32;95411.34;5098252;28;20196;-65
2022/05/16 06:14:28;;;;;;;1999.90;999.90;;;;;;;24.71;88.78;95408.97;5098031;28;20191;-65
2022/05/16 06:16:54;;;;;;;1999.90;999.90;;;;;;;25.06;82.93;95415.09;5097820;28;20204;-67
2022/05/16 06:19:20;;;;;;;1999.90;999.90;;;;;;;24.85;80.84;95399.69;5098163;28;20211;-63
2022/05/16 06:21:46;;;;;;;1999.90;999.90;;;;;;;25.26;77.54;95401.00;5097872;28;20215;-61
2022/05/16 06:26:55;;;;;;;1999.90;999.90;;;;;;;25.95;72.91;95411.59;5115992;28;20190;-63
2022/05/16 06:29:21;;;;;;;1999.90;999.90;;;;;;;26.56;69.73;95418.13;5097992;28;20200;-61
2022/05/16 06:31:46;;;;;;;1999.90;999.90;;;;;;;27.17;66.71;95416.13;5098304;28;20215;-62
2022/05/16 06:34:12;;;;;;;1999.90;999.90;;;;;;;27.32;65.34;95430.69;5097886;28;20278;-61
2022/05/16 06:36:37;;;;;;;1999.90;999.90;;;;;;;26.77;66.23;95436.25;5098454;28;20179;-61
2022/05/16 06:39:03;;;;;;;1999.90;999.90;;;;;;;25.83;71.63;95432.38;5097439;28;20183;-62
2022/05/16 06:41:28;;;;;;;1999.90;999.90;;;;;;;25.56;73.55;95430.19;5097330;28;20220;-61
2022/05/16 06:43:53;;;;;;;1999.90;999.90;;;;;;;25.33;76.66;95434.13;5097550;28;20236;-62
2022/05/16 06:46:18;;;;;;;1999.90;999.90;;;;;;;25.76;74.92;95432.84;5097565;28;20196;-63
2022/05/16 06:48:44;;;;;;;1999.90;999.90;;;;;;;25.33;75.53;95439.72;5097074;28;20203;-62
2022/05/16 06:51:09;;;;;;;1999.90;999.90;;;;;;;24.96;78.87;95444.50;5115474;28;20196;-62
2022/05/16 06:53:34;;;;;;;1999.90;999.90;;;;;;;24.65;81.95;95444.44;5114102;28;20206;-61
2022/05/16 06:56:00;;;;;;;1999.90;999.90;;;;;;;24.86;81.92;95443.91;5096816;28;20179;-62
2022/05/16 06:58:26;;;;;;;1999.90;999.90;;;;;;;24.87;82.10;95450.25;5098055;28;20183;-55
2022/05/16 07:00:52;;;;;;;1999.90;999.90;;;;;;;24.91;81.83;95453.59;5097644;28;20202;-54
2022/05/16 07:03:18;;;;;;;1999.90;999.90;;;;;;;24.93;83.06;95462.25;5098053;28;20180;-54
2022/05/16 07:05:44;;;;;;;1999.90;999.90;;;;;;;24.74;82.24;95463.84;5097321;28;20183;-53
2022/05/16 07:08:10;;;;;;;1999.90;999.90;;;;;;;24.54;83.63;95461.06;5097572;28;20208;-54
2022/05/16 07:10:36;;;;;;;1999.90;999.90;;;;;;;24.66;83.31;95465.56;5097334;28;20190;-54
2022/05/16 07:13:02;;;;;;;1999.90;999.90;;;;;;;24.67;81.43;95467.09;5115324;28;20180;-61
2022/05/16 07:15:27;;;;;;;1999.90;999.90;;;;;;;24.63;82.72;95472.91;5097285;28;20191;-73
2022/05/16 07:17:53;;;;;;;1999.90;999.90;;;;;;;24.56;84.15;95483.72;5097137;28;20218;-72
2022/05/16 07:20:18;;;;;;;1999.90;999.90;;;;;;;24.54;82.86;95487.00;5097029;28;20192;-73
2022/05/16 07:22:46;;;;;;;1999.90;999.90;;;;;;;24.50;83.61;95494.03;5096969;28;20176;-73
2022/05/16 07:25:13;;;;;;;1999.90;999.90;;;;;;;24.44;83.76;95499.56;5096890;28;20184;-71
2022/05/16 07:27:57;;;;;;;1999.90;999.90;;;;;;;24.49;83.96;95504.47;5096877;28;20204;-72
2022/05/16 07:30:32;;;;;;;1999.90;999.90;;;;;;;24.56;84.39;95506.06;5097418;28;20243;-59
2022/05/16 07:32:58;;;;;;;1999.90;999.90;;;;;;;24.60;81.73;95504.59;5097182;28;20191;-66
2022/05/16 07:35:27;;;;;;;1999.90;999.90;;;;;;;24.30;78.66;95502.47;5096992;28;20241;-66
2022/05/16 07:37:53;;;;;;;1999.90;999.90;;;;;;;24.37;77.52;95510.41;5096855;28;20192;-65
2022/05/16 07:40:22;;;;;;;1999.90;999.90;;;;;;;24.37;76.82;95518.78;5097226;28;20300;-68
2022/05/16 07:42:48;;;;;;;1999.90;999.90;;;;;;;24.56;76.79;95517.22;5096637;28;20214;-66
2022/05/16 07:45:14;;;;;;;1999.90;999.90;;;;;;;24.55;77.55;95515.69;5097259;28;20179;-66
2022/05/16 07:47:39;;;;;;;1999.90;999.90;;;;;;;24.71;76.30;95524.28;5096639;28;20203;-64
2022/05/16 07:50:05;;;;;;;1999.90;999.90;;;;;;;24.54;74.20;95520.50;5096449;28;20188;-74
2022/05/16 07:52:31;;;;;;;1999.90;999.90;;;;;;;24.57;75.08;95533.50;5097296;28;20187;-69
2022/05/16 07:54:57;;;;;;;1999.90;999.90;;;;;;;24.92;73.71;95528.56;5096640;28;20217;-65
2022/05/16 07:57:23;;;;;;;1999.90;999.90;;;;;;;25.16;74.42;95531.06;5096667;28;20184;-66
2022/05/16 07:59:49;;;;;;;1999.90;999.90;;;;;;;24.60;77.01;95535.31;5096483;28;20202;-67
2022/05/16 08:02:14;;;;;;;1999.90;999.90;;;;;;;24.17;79.87;95532.75;5095346;28;20179;-66
2022/05/16 08:04:40;;;;;;;1999.90;999.90;;;;;;;24.21;81.55;95547.25;5096917;28;20203;-66
2022/05/16 08:07:06;;;;;;;1999.90;999.90;;;;;;;24.43;81.16;95542.72;5096695;28;20258;-63
2022/05/16 08:12:23;;;;;;;1999.90;999.90;;;;;;;24.74;79.71;95544.88;5114852;28;20202;-59
2022/05/16 08:14:49;;;;;;;1999.90;999.90;;;;;;;25.00;79.06;95551.25;5096183;28;20195;-58
2022/05/16 08:17:14;;;;;;;1999.90;999.90;;;;;;;25.32;77.85;95550.81;5096445;28;20299;-59
2022/05/16 08:19:39;;;;;;;1999.90;999.90;;;;;;;26.02;75.52;95550.34;5096675;28;20183;-59
2022/05/16 08:22:04;;;;;;;1999.90;999.90;;;;;;;26.95;71.31;95553.56;5096799;28;20188;-59
2022/05/16 08:24:30;;;;;;;1999.90;999.90;;;;;;;26.93;69.96;95558.91;5096287;28;20194;-59
2022/05/16 08:26:55;;;;;;;1999.90;999.90;;;;;;;26.69;70.09;95561.38;5096551;28;20206;-62
2022/05/16 08:29:20;;;;;;;1999.90;999.90;;;;;;;26.68;70.21;95573.88;5096256;28;20216;-66
2022/05/16 08:31:46;;;;;;;1999.90;999.90;;;;;;;26.71;70.01;95572.88;5095907;28;20184;-67
2022/05/16 08:34:11;;;;;;;1999.90;999.90;;;;;;;27.08;69.07;95573.47;5096159;28;20240;-68
2022/05/16 08:42:09;;;;;;;1999.90;999.90;;;;;;;26.45;68.25;95588.25;5114446;28;20182;-64
2022/05/16 08:44:41;;;;;;;1999.90;999.90;;;;;;;26.08;69.90;95593.91;5114061;28;20214;-53
2022/05/16 08:47:09;;;;;;;1999.90;999.90;;;;;;;25.74;71.70;95603.31;5096685;28;20281;-50
2022/05/16 08:49:40;;;;;;;1999.90;999.90;;;;;;;25.62;72.56;95607.28;5096627;28;20208;-57
2022/05/16 08:52:28;;;;;;;1999.90;999.90;;;;;;;25.09;75.62;95615.38;5096040;28;20187;-54
2022/05/16 08:55:19;;;;;;;1999.90;999.90;;;;;;;24.84;77.58;95610.56;5096419;28;20209;-54
2022/05/16 08:57:49;;;;;;;1999.90;999.90;;;;;;;24.78;79.65;95615.31;5096504;28;20184;-52
2022/05/16 09:00:25;;;;;;;1999.90;999.90;;;;;;;25.09;78.08;95623.75;5095691;28;20194;-51
2022/05/16 09:02:52;;;;;;;1999.90;999.90;;;;;;;24.79;79.23;95626.00;5096433;28;20198;-52
2022/05/16 09:05:28;;;;;;;1999.90;999.90;;;;;;;24.49;80.48;95629.38;5095808;28;20179;-60
2022/05/16 09:07:56;;;;;;;1999.90;999.90;;;;;;;24.00;83.06;95632.25;5095933;28;20203;-60
2022/05/16 09:10:24;;;;;;;1999.90;999.90;;;;;;;24.01;81.83;95633.78;5095921;28;20211;-60
2022/05/16 09:13:36;;;;;;;1999.90;999.90;;;;;;;23.84;84.58;95635.50;5096663;28;20221;-61
2022/05/16 09:16:37;;;;;;;1999.90;999.90;;;;;;;23.76;85.32;95634.38;5058086;28;20239;-61
2022/05/16 09:19:08;;;;;;;1999.90;999.90;;;;;;;23.26;87.51;95636.31;5047665;28;20299;-61
2022/05/16 09:22:21;;;;;;;1999.90;999.90;;;;;;;23.15;89.43;95640.88;5090737;28;20200;-63
2022/05/16 09:24:55;;;;;;;1999.90;999.90;;;;;;;23.15;91.24;95643.66;5038904;28;20231;-64
2022/05/16 09:30:19;;;;;;;1999.90;999.90;;;;;;;22.72;95.74;95652.72;5096132;28;20207;-63
2022/05/16 09:32:50;;;;;;;1999.90;999.90;;;;;;;22.69;96.69;95648.84;5099365;28;20218;-64
2022/05/16 09:35:53;;;;;;;1999.90;999.90;;;;;;;22.43;99.05;95656.91;5117297;28;20203;-62
2022/05/16 09:38:19;;;;;;;1999.90;999.90;;;;;;;22.51;100.00;95659.34;5077899;28;20191;-62
2022/05/16 09:41:35;;;;;;;1999.90;999.90;;;;;;;22.72;100.00;95663.84;5099479;28;20199;-56
2022/05/16 09:44:03;;;;;;;1999.90;999.90;;;;;;;22.68;99.74;95663.28;5097093;28;20196;-66
2022/05/16 09:46:39;;;;;;;1999.90;999.90;;;;;;;22.58;98.62;95665.31;5098639;28;20239;-65
2022/05/16 09:49:18;;;;;;;1999.90;999.90;;;;;;;22.64;96.67;95662.66;5099592;28;20211;-65
2022/05/16 09:51:52;;;;;;;1999.90;999.90;;;;;;;22.48;98.39;95659.06;5099351;28;20191;-65
2022/05/16 09:54:32;;;;;;;1999.90;999.90;;;;;;;22.74;97.10;95664.13;5098942;28;20203;-65
2022/05/16 09:57:01;;;;;;;1999.90;999.90;;;;;;;22.68;98.17;95664.03;5098653;28;20190;-65
2022/05/16 09:59:48;;;;;;;1999.90;999.90;;;;;;;23.07;95.37;95662.00;5098803;28;20196;-64
2022/05/16 10:02:35;;;;;;;1999.90;999.90;;;;;;;22.95;96.11;95665.84;5098646;28;20184;-61
2022/05/16 10:05:24;;;;;;;1999.90;999.90;;;;;;;22.76;95.68;95662.41;5098945;28;20240;-61
2022/05/16 10:08:02;;;;;;;1999.90;999.90;;;;;;;23.11;92.72;95660.59;5098921;28;20208;-60
2022/05/16 10:10:36;;;;;;;1999.90;999.90;;;;;;;23.22;93.34;95662.81;5098878;28;20187;-63
2022/05/16 10:13:01;;;;;;;1999.90;999.90;;;;;;;22.97;93.07;95666.91;5098049;28;20195;-62
2022/05/16 10:15:27;;;;;;;1999.90;999.90;;;;;;;23.11;92.46;95662.59;5098345;28;20288;-60
2022/05/16 10:17:56;;;;;;;1999.90;999.90;;;;;;;23.54;89.49;95667.47;5098102;28;20203;-62
2022/05/16 10:20:27;;;;;;;1999.90;999.90;;;;;;;23.68;87.58;95661.13;5098178;28;20195;-61
2022/05/16 10:22:57;;;;;;;1999.90;999.90;;;;;;;23.69;86.03;95669.00;5098135;28;20191;-62
2022/05/16 10:25:29;;;;;;;1999.90;999.90;;;;;;;23.23;88.45;95669.97;5096988;28;20391;-64
2022/05/16 10:27:55;;;;;;;1999.90;999.90;;;;;;;23.54;88.96;95667.47;5098105;28;20207;-63
2022/05/16 10:30:26;;;;;;;1999.90;999.90;;;;;;;23.54;87.99;95671.03;5098136;28;20175;-61
2022/05/16 10:35:48;;;;;;;1999.90;999.90;;;;;;;23.29;94.02;95668.03;5116438;28;20191;-64
2022/05/16 10:38:38;;;;;;;1999.90;999.90;;;;;;;23.24;93.94;95661.13;5098207;28;20188;-51
2022/05/16 10:41:10;;;;;;;1999.90;999.90;;;;;;;23.06;92.70;95660.47;5098441;28;20220;-54
2022/05/16 10:43:55;;;;;;;1999.90;999.90;;;;;;;23.05;96.91;95658.94;5098420;28;20209;-57
2022/05/16 10:46:28;;;;;;;1999.90;999.90;;;;;;;23.08;100.00;95658.00;5097998;28;20188;-55
2022/05/16 10:49:11;;;;;;;1999.90;999.90;;;;;;;22.48;100.00;95661.84;5098056;28;20211;-55
2022/05/16 10:51:42;;;;;;;1999.90;999.90;;;;;;;22.42;100.00;95663.72;5097701;28;20188;-57
2022/05/16 10:54:19;;;;;;;1999.90;999.90;;;;;;;22.08;100.00;95661.41;5097646;28;20192;-60
2022/05/16 10:57:04;;;;;;;1999.90;999.90;;;;;;;21.92;100.00;95647.91;5097959;28;20179;-62
2022/05/16 11:00:00;;;;;;;1999.90;999.90;;;;;;;21.80;100.00;95645.31;5098068;28;20187;-62
2022/05/16 11:02:56;;;;;;;1999.90;999.90;;;;;;;21.71;100.00;95643.34;5115729;28;20176;-64
2022/05/16 11:05:40;;;;;;;1999.90;999.90;;;;;;;21.61;100.00;95639.06;5097821;28;20200;-65
2022/05/16 11:08:48;;;;;;;1999.90;999.90;;;;;;;21.70;100.00;95636.22;5098069;28;20200;-64
2022/05/16 11:11:42;;;;;;;1999.90;999.90;;;;;;;21.66;100.00;95621.72;5078178;28;20203;-63
2022/05/16 11:14:16;;;;;;;1999.90;999.90;;;;;;;22.03;100.00;95625.91;5097199;28;20198;-62
2022/05/16 11:16:41;;;;;;;1999.90;999.90;;;;;;;22.31;100.00;95624.50;5097978;28;20207;-65
2022/05/16 11:19:25;;;;;;;1999.90;999.90;;;;;;;22.42;100.00;95624.75;5096918;28;20194;-63
2022/05/16 11:22:21;;;;;;;1999.90;999.90;;;;;;;22.36;100.00;95631.41;5097229;28;20183;-65
2022/05/16 11:25:02;;;;;;;1999.90;999.90;;;;;;;22.75;100.00;95618.31;5097613;28;20200;-64
2022/05/16 11:28:06;;;;;;;1999.90;999.90;;;;;;;23.02;100.00;95618.84;5097089;28;20191;-62
2022/05/16 11:30:50;;;;;;;1999.90;999.90;;;;;;;23.26;100.00;95618.81;5089631;28;20201;-63
2022/05/16 11:33:43;;;;;;;1999.90;999.90;;;;;;;23.60;100.00;95610.53;5097439;28;20187;-64